sensor_id;sensor_type;location;lat;lon;timestamp;temperature;humidity
64833;HTU21D;51290;45.060;38.948;2023-03-24T00:00:11;12.35;67.43
64833;HTU21D;51290;45.060;38.948;2023-03-24T00:02:40;12.35;67.43
64833;HTU21D;51290;45.060;38.948;2023-03-24T00:05:27;12.37;67.41
64833;HTU21D;51290;45.060;38.948;2023-03-24T00:07:55;12.38;67.40
64833;HTU21D;51290;45.060;38.948;2023-03-24T00:10:21;12.38;67.44
64833;HTU21D;51290;45.060;38.948;2023-03-24T00:12:48;12.40;67.43
64833;HTU21D;51290;45.060;38.948;2023-03-24T00:15:17;12.38;67.43
64833;HTU21D;51290;45.060;38.948;2023-03-24T00:17:45;12.36;67.43
64833;HTU21D;51290;45.060;38.948;2023-03-24T00:20:15;12.36;67.44
64833;HTU21D;51290;45.060;38.948;2023-03-24T00:22:46;12.36;67.46
64833;HTU21D;51290;45.060;38.948;2023-03-24T00:25:20;12.36;67.46
64833;HTU21D;51290;45.060;38.948;2023-03-24T00:27:53;12.36;67.46
64833;HTU21D;51290;45.060;38.948;2023-03-24T00:30:20;12.35;67.48
64833;HTU21D;51290;45.060;38.948;2023-03-24T00:32:46;12.36;67.48
64833;HTU21D;51290;45.060;38.948;2023-03-24T00:35:14;12.34;67.50
64833;HTU21D;51290;45.060;38.948;2023-03-24T00:37:41;12.33;67.52
64833;HTU21D;51290;45.060;38.948;2023-03-24T00:40:12;12.33;67.53
64833;HTU21D;51290;45.060;38.948;2023-03-24T00:42:40;12.33;67.55
64833;HTU21D;51290;45.060;38.948;2023-03-24T00:45:12;12.32;67.57
64833;HTU21D;51290;45.060;38.948;2023-03-24T00:47:40;12.30;67.61
64833;HTU21D;51290;45.060;38.948;2023-03-24T00:50:17;12.29;67.62
64833;HTU21D;51290;45.060;38.948;2023-03-24T00:52:46;12.26;67.75
64833;HTU21D;51290;45.060;38.948;2023-03-24T00:55:15;12.18;67.82
64833;HTU21D;51290;45.060;38.948;2023-03-24T00:57:43;12.10;67.91
64833;HTU21D;51290;45.060;38.948;2023-03-24T01:00:24;12.02;68.08
64833;HTU21D;51290;45.060;38.948;2023-03-24T01:02:54;11.93;68.24
64833;HTU21D;51290;45.060;38.948;2023-03-24T01:05:25;11.85;68.55
64833;HTU21D;51290;45.060;38.948;2023-03-24T01:07:56;11.78;68.57
64833;HTU21D;51290;45.060;38.948;2023-03-24T01:10:23;11.73;68.62
64833;HTU21D;51290;45.060;38.948;2023-03-24T01:12:53;11.68;68.69
64833;HTU21D;51290;45.060;38.948;2023-03-24T01:15:21;11.63;68.76
64833;HTU21D;51290;45.060;38.948;2023-03-24T01:17:50;11.58;68.90
64833;HTU21D;51290;45.060;38.948;2023-03-24T01:20:18;11.56;68.97
64833;HTU21D;51290;45.060;38.948;2023-03-24T01:22:44;11.51;69.09
64833;HTU21D;51290;45.060;38.948;2023-03-24T01:25:20;11.47;69.18
64833;HTU21D;51290;45.060;38.948;2023-03-24T01:27:48;11.41;69.30
64833;HTU21D;51290;45.060;38.948;2023-03-24T01:30:16;11.38;69.45
64833;HTU21D;51290;45.060;38.948;2023-03-24T01:32:43;11.32;69.58
64833;HTU21D;51290;45.060;38.948;2023-03-24T01:35:09;11.29;69.61
64833;HTU21D;51290;45.060;38.948;2023-03-24T01:37:37;11.25;69.67
64833;HTU21D;51290;45.060;38.948;2023-03-24T01:40:04;11.26;69.68
64833;HTU21D;51290;45.060;38.948;2023-03-24T01:42:38;11.23;69.74
64833;HTU21D;51290;45.060;38.948;2023-03-24T01:48:21;11.15;69.82
64833;HTU21D;51290;45.060;38.948;2023-03-24T01:50:55;11.09;69.94
64833;HTU21D;51290;45.060;38.948;2023-03-24T01:53:24;11.05;70.04
64833;HTU21D;51290;45.060;38.948;2023-03-24T01:55:51;11.01;70.26
64833;HTU21D;51290;45.060;38.948;2023-03-24T01:58:23;10.97;70.50
64833;HTU21D;51290;45.060;38.948;2023-03-24T02:01:09;10.93;70.61
64833;HTU21D;51290;45.060;38.948;2023-03-24T02:03:58;10.88;70.77
64833;HTU21D;51290;45.060;38.948;2023-03-24T02:06:31;10.86;70.95
64833;HTU21D;51290;45.060;38.948;2023-03-24T02:09:00;10.83;71.14
64833;HTU21D;51290;45.060;38.948;2023-03-24T02:11:30;10.82;71.13
64833;HTU21D;51290;45.060;38.948;2023-03-24T02:14:01;10.81;71.13
64833;HTU21D;51290;45.060;38.948;2023-03-24T02:27:34;10.79;71.22
64833;HTU21D;51290;45.060;38.948;2023-03-24T02:43:41;10.74;71.48
64833;HTU21D;51290;45.060;38.948;2023-03-24T02:46:23;10.74;71.48
64833;HTU21D;51290;45.060;38.948;2023-03-24T02:51:51;10.80;71.45
64833;HTU21D;51290;45.060;38.948;2023-03-24T03:00:09;10.77;71.49
64833;HTU21D;51290;45.060;38.948;2023-03-24T03:03:04;10.77;71.52
64833;HTU21D;51290;45.060;38.948;2023-03-24T03:05:43;10.79;71.55
64833;HTU21D;51290;45.060;38.948;2023-03-24T03:08:13;10.78;71.56
64833;HTU21D;51290;45.060;38.948;2023-03-24T03:10:45;10.79;71.58
64833;HTU21D;51290;45.060;38.948;2023-03-24T03:13:29;10.80;71.55
64833;HTU21D;51290;45.060;38.948;2023-03-24T03:16:01;10.82;71.52
64833;HTU21D;51290;45.060;38.948;2023-03-24T03:18:39;10.81;71.45
64833;HTU21D;51290;45.060;38.948;2023-03-24T03:21:12;10.77;71.43
64833;HTU21D;51290;45.060;38.948;2023-03-24T03:23:48;10.70;71.50
64833;HTU21D;51290;45.060;38.948;2023-03-24T03:26:18;10.68;71.60
64833;HTU21D;51290;45.060;38.948;2023-03-24T03:28:55;10.66;71.67
64833;HTU21D;51290;45.060;38.948;2023-03-24T03:31:35;10.65;71.76
64833;HTU21D;51290;45.060;38.948;2023-03-24T03:34:23;10.63;71.81
64833;HTU21D;51290;45.060;38.948;2023-03-24T03:37:00;10.62;71.87
64833;HTU21D;51290;45.060;38.948;2023-03-24T03:39:34;10.59;71.88
64833;HTU21D;51290;45.060;38.948;2023-03-24T03:42:05;10.60;71.95
64833;HTU21D;51290;45.060;38.948;2023-03-24T03:44:32;10.59;71.98
64833;HTU21D;51290;45.060;38.948;2023-03-24T03:46:59;10.59;72.03
64833;HTU21D;51290;45.060;38.948;2023-03-24T03:49:36;10.58;72.08
64833;HTU21D;51290;45.060;38.948;2023-03-24T03:52:02;10.59;72.14
64833;HTU21D;51290;45.060;38.948;2023-03-24T03:54:29;10.60;72.19
64833;HTU21D;51290;45.060;38.948;2023-03-24T03:56:58;10.63;72.19
64833;HTU21D;51290;45.060;38.948;2023-03-24T03:59:33;10.66;72.17
64833;HTU21D;51290;45.060;38.948;2023-03-24T04:20:59;10.78;72.11
64833;HTU21D;51290;45.060;38.948;2023-03-24T04:29:06;10.78;72.25
64833;HTU21D;51290;45.060;38.948;2023-03-24T04:31:44;10.78;72.35
64833;HTU21D;51290;45.060;38.948;2023-03-24T04:34:29;10.75;72.39
64833;HTU21D;51290;45.060;38.948;2023-03-24T04:37:09;10.74;72.43
64833;HTU21D;51290;45.060;38.948;2023-03-24T04:40:09;10.73;72.47
64833;HTU21D;51290;45.060;38.948;2023-03-24T04:42:42;10.73;72.52
64833;HTU21D;51290;45.060;38.948;2023-03-24T04:45:10;10.72;72.58
64833;HTU21D;51290;45.060;38.948;2023-03-24T04:47:59;10.72;72.67
64833;HTU21D;51290;45.060;38.948;2023-03-24T04:50:59;10.72;72.76
64833;HTU21D;51290;45.060;38.948;2023-03-24T04:53:32;10.71;72.83
64833;HTU21D;51290;45.060;38.948;2023-03-24T04:56:24;10.70;72.96
64833;HTU21D;51290;45.060;38.948;2023-03-24T04:59:02;10.70;73.11
64833;HTU21D;51290;45.060;38.948;2023-03-24T05:01:29;10.73;73.25
64833;HTU21D;51290;45.060;38.948;2023-03-24T05:04:26;10.72;73.11
64833;HTU21D;51290;45.060;38.948;2023-03-24T05:06:54;10.73;73.15
64833;HTU21D;51290;45.060;38.948;2023-03-24T05:09:24;10.73;73.30
64833;HTU21D;51290;45.060;38.948;2023-03-24T05:11:50;10.75;73.35
64833;HTU21D;51290;45.060;38.948;2023-03-24T05:14:17;10.79;73.46
64833;HTU21D;51290;45.060;38.948;2023-03-24T05:16:44;10.82;73.59
64833;HTU21D;51290;45.060;38.948;2023-03-24T05:19:11;10.85;73.54
64833;HTU21D;51290;45.060;38.948;2023-03-24T05:21:39;10.86;73.54
64833;HTU21D;51290;45.060;38.948;2023-03-24T05:24:06;10.88;73.53
64833;HTU21D;51290;45.060;38.948;2023-03-24T05:26:34;10.89;73.52
64833;HTU21D;51290;45.060;38.948;2023-03-24T05:29:13;10.94;73.54
64833;HTU21D;51290;45.060;38.948;2023-03-24T05:31:39;10.96;73.53
64833;HTU21D;51290;45.060;38.948;2023-03-24T05:34:09;10.99;73.49
64833;HTU21D;51290;45.060;38.948;2023-03-24T05:36:58;11.01;73.44
64833;HTU21D;51290;45.060;38.948;2023-03-24T05:39:24;11.05;73.48
64833;HTU21D;51290;45.060;38.948;2023-03-24T05:41:58;11.09;73.50
64833;HTU21D;51290;45.060;38.948;2023-03-24T05:44:24;11.10;73.47
64833;HTU21D;51290;45.060;38.948;2023-03-24T05:47:03;11.09;73.46
64833;HTU21D;51290;45.060;38.948;2023-03-24T05:49:34;11.09;73.53
64833;HTU21D;51290;45.060;38.948;2023-03-24T05:52:01;11.12;73.56
64833;HTU21D;51290;45.060;38.948;2023-03-24T05:54:27;11.11;73.53
64833;HTU21D;51290;45.060;38.948;2023-03-24T05:57:05;11.12;73.59
64833;HTU21D;51290;45.060;38.948;2023-03-24T05:59:52;11.10;73.55
64833;HTU21D;51290;45.060;38.948;2023-03-24T06:02:38;11.11;73.70
64833;HTU21D;51290;45.060;38.948;2023-03-24T06:05:16;11.10;73.82
64833;HTU21D;51290;45.060;38.948;2023-03-24T06:07:43;11.10;73.80
64833;HTU21D;51290;45.060;38.948;2023-03-24T06:10:10;11.10;73.82
64833;HTU21D;51290;45.060;38.948;2023-03-24T06:12:44;11.07;73.98
64833;HTU21D;51290;45.060;38.948;2023-03-24T06:15:11;11.03;73.96
64833;HTU21D;51290;45.060;38.948;2023-03-24T06:17:43;11.02;74.11
64833;HTU21D;51290;45.060;38.948;2023-03-24T06:20:21;11.00;74.21
64833;HTU21D;51290;45.060;38.948;2023-03-24T06:23:09;10.99;74.25
64833;HTU21D;51290;45.060;38.948;2023-03-24T06:26:00;10.98;74.21
64833;HTU21D;51290;45.060;38.948;2023-03-24T06:28:28;10.97;74.26
64833;HTU21D;51290;45.060;38.948;2023-03-24T06:30:58;10.99;74.37
64833;HTU21D;51290;45.060;38.948;2023-03-24T06:33:34;10.99;74.40
64833;HTU21D;51290;45.060;38.948;2023-03-24T06:36:01;10.99;74.33
64833;HTU21D;51290;45.060;38.948;2023-03-24T06:38:30;10.99;74.35
64833;HTU21D;51290;45.060;38.948;2023-03-24T06:41:01;10.99;74.37
64833;HTU21D;51290;45.060;38.948;2023-03-24T06:43:29;10.99;74.38
64833;HTU21D;51290;45.060;38.948;2023-03-24T06:45:55;11.00;74.37
64833;HTU21D;51290;45.060;38.948;2023-03-24T06:48:23;11.02;74.37
64833;HTU21D;51290;45.060;38.948;2023-03-24T06:50:53;11.05;74.38
64833;HTU21D;51290;45.060;38.948;2023-03-24T06:53:20;11.10;74.39
64833;HTU21D;51290;45.060;38.948;2023-03-24T06:55:47;11.15;74.36
64833;HTU21D;51290;45.060;38.948;2023-03-24T06:58:15;11.22;74.34
64833;HTU21D;51290;45.060;38.948;2023-03-24T07:00:59;11.30;74.25
64833;HTU21D;51290;45.060;38.948;2023-03-24T07:03:31;11.36;74.22
64833;HTU21D;51290;45.060;38.948;2023-03-24T07:06:16;11.41;74.09
64833;HTU21D;51290;45.060;38.948;2023-03-24T07:08:46;11.41;74.06
64833;HTU21D;51290;45.060;38.948;2023-03-24T07:11:13;11.42;74.10
64833;HTU21D;51290;45.060;38.948;2023-03-24T07:13:48;11.44;74.14
64833;HTU21D;51290;45.060;38.948;2023-03-24T07:16:14;11.47;74.24
64833;HTU21D;51290;45.060;38.948;2023-03-24T07:18:41;11.52;74.28
64833;HTU21D;51290;45.060;38.948;2023-03-24T07:21:07;11.57;74.34
64833;HTU21D;51290;45.060;38.948;2023-03-24T07:23:35;11.67;74.37
64833;HTU21D;51290;45.060;38.948;2023-03-24T07:26:07;11.77;74.32
64833;HTU21D;51290;45.060;38.948;2023-03-24T07:28:46;11.90;74.20
64833;HTU21D;51290;45.060;38.948;2023-03-24T07:31:18;12.03;74.15
64833;HTU21D;51290;45.060;38.948;2023-03-24T07:33:49;12.14;74.14
64833;HTU21D;51290;45.060;38.948;2023-03-24T07:36:15;12.29;74.09
64833;HTU21D;51290;45.060;38.948;2023-03-24T07:38:41;12.44;73.92
64833;HTU21D;51290;45.060;38.948;2023-03-24T07:41:12;12.57;73.87
64833;HTU21D;51290;45.060;38.948;2023-03-24T07:43:44;12.75;73.79
64833;HTU21D;51290;45.060;38.948;2023-03-24T07:46:32;12.97;73.56
64833;HTU21D;51290;45.060;38.948;2023-03-24T07:48:58;13.15;73.39
64833;HTU21D;51290;45.060;38.948;2023-03-24T07:51:24;13.31;73.20
64833;HTU21D;51290;45.060;38.948;2023-03-24T07:54:16;13.49;72.96
64833;HTU21D;51290;45.060;38.948;2023-03-24T07:56:46;13.65;72.77
64833;HTU21D;51290;45.060;38.948;2023-03-24T07:59:13;13.79;72.53
64833;HTU21D;51290;45.060;38.948;2023-03-24T08:02:02;13.94;72.26
64833;HTU21D;51290;45.060;38.948;2023-03-24T08:04:52;14.07;71.99
64833;HTU21D;51290;45.060;38.948;2023-03-24T08:07:51;14.19;71.64
64833;HTU21D;51290;45.060;38.948;2023-03-24T08:10:26;14.26;71.44
64833;HTU21D;51290;45.060;38.948;2023-03-24T08:12:52;14.36;71.46
64833;HTU21D;51290;45.060;38.948;2023-03-24T08:15:19;14.50;71.41
64833;HTU21D;51290;45.060;38.948;2023-03-24T08:17:47;14.66;71.33
64833;HTU21D;51290;45.060;38.948;2023-03-24T08:20:14;14.85;71.12
64833;HTU21D;51290;45.060;38.948;2023-03-24T08:22:41;15.06;70.85
64833;HTU21D;51290;45.060;38.948;2023-03-24T08:25:09;15.24;70.56
64833;HTU21D;51290;45.060;38.948;2023-03-24T08:27:37;15.40;70.35
64833;HTU21D;51290;45.060;38.948;2023-03-24T08:30:08;15.53;69.66
64833;HTU21D;51290;45.060;38.948;2023-03-24T08:32:43;15.60;69.51
64833;HTU21D;51290;45.060;38.948;2023-03-24T08:35:11;15.65;69.09
64833;HTU21D;51290;45.060;38.948;2023-03-24T08:37:40;15.67;69.16
64833;HTU21D;51290;45.060;38.948;2023-03-24T08:40:09;15.71;69.11
64833;HTU21D;51290;45.060;38.948;2023-03-24T08:42:40;15.77;69.16
64833;HTU21D;51290;45.060;38.948;2023-03-24T08:45:07;15.89;69.14
64833;HTU21D;51290;45.060;38.948;2023-03-24T08:47:34;16.03;69.05
64833;HTU21D;51290;45.060;38.948;2023-03-24T08:50:00;16.19;68.87
64833;HTU21D;51290;45.060;38.948;2023-03-24T08:52:26;16.32;68.52
64833;HTU21D;51290;45.060;38.948;2023-03-24T08:54:52;16.42;68.17
64833;HTU21D;51290;45.060;38.948;2023-03-24T08:57:18;16.48;67.96
64833;HTU21D;51290;45.060;38.948;2023-03-24T08:59:46;16.51;67.84
64833;HTU21D;51290;45.060;38.948;2023-03-24T09:02:12;16.59;67.74
64833;HTU21D;51290;45.060;38.948;2023-03-24T09:04:39;16.64;67.58
64833;HTU21D;51290;45.060;38.948;2023-03-24T09:07:08;16.70;67.47
64833;HTU21D;51290;45.060;38.948;2023-03-24T09:09:34;16.77;67.38
64833;HTU21D;51290;45.060;38.948;2023-03-24T09:12:00;16.84;67.29
64833;HTU21D;51290;45.060;38.948;2023-03-24T09:14:26;16.93;66.76
64833;HTU21D;51290;45.060;38.948;2023-03-24T09:16:52;16.99;66.65
64833;HTU21D;51290;45.060;38.948;2023-03-24T09:19:18;17.03;66.70
64833;HTU21D;51290;45.060;38.948;2023-03-24T09:21:46;17.13;66.71
64833;HTU21D;51290;45.060;38.948;2023-03-24T09:24:13;17.23;66.56
64833;HTU21D;51290;45.060;38.948;2023-03-24T09:26:40;17.34;66.38
64833;HTU21D;51290;45.060;38.948;2023-03-24T09:29:06;17.41;66.13
64833;HTU21D;51290;45.060;38.948;2023-03-24T09:31:33;17.48;65.82
64833;HTU21D;51290;45.060;38.948;2023-03-24T09:33:59;17.49;65.69
64833;HTU21D;51290;45.060;38.948;2023-03-24T09:36:26;17.48;65.44
64833;HTU21D;51290;45.060;38.948;2023-03-24T09:38:52;17.47;65.57
64833;HTU21D;51290;45.060;38.948;2023-03-24T09:41:25;17.49;65.53
64833;HTU21D;51290;45.060;38.948;2023-03-24T09:43:56;17.56;65.46
64833;HTU21D;51290;45.060;38.948;2023-03-24T09:46:30;17.64;65.27
64833;HTU21D;51290;45.060;38.948;2023-03-24T09:48:59;17.72;65.12
64833;HTU21D;51290;45.060;38.948;2023-03-24T09:51:35;17.79;64.63
64833;HTU21D;51290;45.060;38.948;2023-03-24T09:56:35;17.93;64.58
64833;HTU21D;51290;45.060;38.948;2023-03-24T09:59:05;18.03;64.30
64833;HTU21D;51290;45.060;38.948;2023-03-24T10:01:33;18.09;64.26
64833;HTU21D;51290;45.060;38.948;2023-03-24T10:04:01;18.21;64.10
64833;HTU21D;51290;45.060;38.948;2023-03-24T10:06:38;18.32;63.69
64833;HTU21D;51290;45.060;38.948;2023-03-24T10:09:23;18.37;63.42
64833;HTU21D;51290;45.060;38.948;2023-03-24T10:12:24;18.43;63.47
64833;HTU21D;51290;45.060;38.948;2023-03-24T10:18:00;18.57;63.19
64833;HTU21D;51290;45.060;38.948;2023-03-24T10:23:23;18.77;63.09
64833;HTU21D;51290;45.060;38.948;2023-03-24T10:26:21;18.86;62.97
64833;HTU21D;51290;45.060;38.948;2023-03-24T10:29:06;18.92;62.58
64833;HTU21D;51290;45.060;38.948;2023-03-24T10:31:38;18.92;62.50
64833;HTU21D;51290;45.060;38.948;2023-03-24T10:34:10;18.88;62.40
64833;HTU21D;51290;45.060;38.948;2023-03-24T10:36:37;18.85;62.35
64833;HTU21D;51290;45.060;38.948;2023-03-24T10:39:04;18.82;62.19
64833;HTU21D;51290;45.060;38.948;2023-03-24T10:41:31;18.74;61.95
64833;HTU21D;51290;45.060;38.948;2023-03-24T10:43:58;18.68;62.11
64833;HTU21D;51290;45.060;38.948;2023-03-24T10:46:29;18.63;61.92
64833;HTU21D;51290;45.060;38.948;2023-03-24T10:51:34;18.55;62.18
64833;HTU21D;51290;45.060;38.948;2023-03-24T10:54:24;18.52;61.73
64833;HTU21D;51290;45.060;38.948;2023-03-24T10:57:01;18.46;61.54
64833;HTU21D;51290;45.060;38.948;2023-03-24T11:02:34;18.28;61.37
64833;HTU21D;51290;45.060;38.948;2023-03-24T11:05:15;18.13;61.25
64833;HTU21D;51290;45.060;38.948;2023-03-24T11:07:45;18.03;61.39
64833;HTU21D;51290;45.060;38.948;2023-03-24T11:10:15;17.93;61.25
64833;HTU21D;51290;45.060;38.948;2023-03-24T11:12:59;17.88;61.55
64833;HTU21D;51290;45.060;38.948;2023-03-24T11:15:28;17.85;61.38
64833;HTU21D;51290;45.060;38.948;2023-03-24T11:20:38;17.90;61.44
64833;HTU21D;51290;45.060;38.948;2023-03-24T11:23:55;17.92;61.17
64833;HTU21D;51290;45.060;38.948;2023-03-24T11:26:18;17.77;60.92
64833;HTU21D;51290;45.060;38.948;2023-03-24T11:28:52;17.60;60.84
64833;HTU21D;51290;45.060;38.948;2023-03-24T11:31:27;17.48;61.05
64833;HTU21D;51290;45.060;38.948;2023-03-24T11:34:16;17.49;61.57
64833;HTU21D;51290;45.060;38.948;2023-03-24T11:36:54;17.55;61.19
64833;HTU21D;51290;45.060;38.948;2023-03-24T11:39:24;17.51;61.09
64833;HTU21D;51290;45.060;38.948;2023-03-24T11:44:21;17.50;61.04
64833;HTU21D;51290;45.060;38.948;2023-03-24T11:46:52;17.46;60.93
64833;HTU21D;51290;45.060;38.948;2023-03-24T11:49:23;17.38;60.82
64833;HTU21D;51290;45.060;38.948;2023-03-24T11:51:53;17.29;60.85
64833;HTU21D;51290;45.060;38.948;2023-03-24T11:54:26;17.19;60.87
64833;HTU21D;51290;45.060;38.948;2023-03-24T11:56:56;17.09;61.12
64833;HTU21D;51290;45.060;38.948;2023-03-24T11:59:26;17.07;61.28
64833;HTU21D;51290;45.060;38.948;2023-03-24T12:02:10;17.06;61.38
64833;HTU21D;51290;45.060;38.948;2023-03-24T12:13:13;16.78;61.04
64833;HTU21D;51290;45.060;38.948;2023-03-24T12:22:34;16.62;61.60
64833;HTU21D;51290;45.060;38.948;2023-03-24T12:30:35;17.08;61.01
64833;HTU21D;51290;45.060;38.948;2023-03-24T12:33:21;17.02;60.75
64833;HTU21D;51290;45.060;38.948;2023-03-24T12:39:03;16.87;61.03
64833;HTU21D;51290;45.060;38.948;2023-03-24T12:55:46;16.77;60.67
64833;HTU21D;51290;45.060;38.948;2023-03-24T12:58:02;16.64;60.75
64833;HTU21D;51290;45.060;38.948;2023-03-24T13:00:33;16.49;60.71
64833;HTU21D;51290;45.060;38.948;2023-03-24T13:03:10;16.37;60.99
64833;HTU21D;51290;45.060;38.948;2023-03-24T13:05:39;16.32;60.98
64833;HTU21D;51290;45.060;38.948;2023-03-24T13:08:14;16.22;61.12
64833;HTU21D;51290;45.060;38.948;2023-03-24T13:10:42;16.10;61.12
64833;HTU21D;51290;45.060;38.948;2023-03-24T13:15:48;15.96;61.66
64833;HTU21D;51290;45.060;38.948;2023-03-24T13:26:43;15.88;61.99
64833;HTU21D;51290;45.060;38.948;2023-03-24T13:29:45;15.89;62.04
64833;HTU21D;51290;45.060;38.948;2023-03-24T13:37:59;15.86;61.99
64833;HTU21D;51290;45.060;38.948;2023-03-24T13:40:28;15.82;62.05
64833;HTU21D;51290;45.060;38.948;2023-03-24T13:42:59;15.78;61.96
64833;HTU21D;51290;45.060;38.948;2023-03-24T13:45:45;15.73;61.86
64833;HTU21D;51290;45.060;38.948;2023-03-24T13:51:03;15.59;61.87
64833;HTU21D;51290;45.060;38.948;2023-03-24T13:53:39;15.55;61.96
64833;HTU21D;51290;45.060;38.948;2023-03-24T13:56:09;15.53;62.04
64833;HTU21D;51290;45.060;38.948;2023-03-24T13:59:30;15.51;61.92
64833;HTU21D;51290;45.060;38.948;2023-03-24T14:01:43;15.45;61.91
64833;HTU21D;51290;45.060;38.948;2023-03-24T14:04:20;15.43;61.87
64833;HTU21D;51290;45.060;38.948;2023-03-24T14:06:50;15.43;61.96
64833;HTU21D;51290;45.060;38.948;2023-03-24T14:09:28;15.43;62.00
64833;HTU21D;51290;45.060;38.948;2023-03-24T14:14:22;15.45;61.88
64833;HTU21D;51290;45.060;38.948;2023-03-24T14:19:41;15.46;61.64
64833;HTU21D;51290;45.060;38.948;2023-03-24T14:22:31;15.43;61.67
64833;HTU21D;51290;45.060;38.948;2023-03-24T14:27:41;15.29;61.70
64833;HTU21D;51290;45.060;38.948;2023-03-24T14:30:26;15.22;61.78
64833;HTU21D;51290;45.060;38.948;2023-03-24T14:32:56;15.13;61.86
64833;HTU21D;51290;45.060;38.948;2023-03-24T14:35:39;15.09;61.94
64833;HTU21D;51290;45.060;38.948;2023-03-24T14:38:21;15.01;62.01
64833;HTU21D;51290;45.060;38.948;2023-03-24T14:40:51;14.96;62.08
64833;HTU21D;51290;45.060;38.948;2023-03-24T14:43:22;14.89;62.17
64833;HTU21D;51290;45.060;38.948;2023-03-24T14:51:29;14.73;62.24
64833;HTU21D;51290;45.060;38.948;2023-03-24T14:57:18;14.58;62.35
64833;HTU21D;51290;45.060;38.948;2023-03-24T14:59:50;14.49;62.38
64833;HTU21D;51290;45.060;38.948;2023-03-24T15:05:28;14.32;62.49
64833;HTU21D;51290;45.060;38.948;2023-03-24T15:07:58;14.23;62.55
64833;HTU21D;51290;45.060;38.948;2023-03-24T15:10:25;14.14;62.64
64833;HTU21D;51290;45.060;38.948;2023-03-24T15:12:56;14.04;62.75
64833;HTU21D;51290;45.060;38.948;2023-03-24T15:15:23;13.95;62.84
64833;HTU21D;51290;45.060;38.948;2023-03-24T15:17:50;13.86;62.95
64833;HTU21D;51290;45.060;38.948;2023-03-24T15:20:25;13.77;63.04
64833;HTU21D;51290;45.060;38.948;2023-03-24T15:22:51;13.67;63.09
64833;HTU21D;51290;45.060;38.948;2023-03-24T15:25:27;13.58;63.23
64833;HTU21D;51290;45.060;38.948;2023-03-24T15:27:54;13.50;63.33
64833;HTU21D;51290;45.060;38.948;2023-03-24T15:30:23;13.40;63.42
64833;HTU21D;51290;45.060;38.948;2023-03-24T15:32:49;13.33;63.57
64833;HTU21D;51290;45.060;38.948;2023-03-24T15:35:21;13.24;63.66
64833;HTU21D;51290;45.060;38.948;2023-03-24T15:37:55;13.16;63.72
64833;HTU21D;51290;45.060;38.948;2023-03-24T15:42:59;13.01;63.85
64833;HTU21D;51290;45.060;38.948;2023-03-24T15:45:41;12.91;63.94
64833;HTU21D;51290;45.060;38.948;2023-03-24T15:48:13;12.82;64.05
64833;HTU21D;51290;45.060;38.948;2023-03-24T15:50:58;12.75;64.17
64833;HTU21D;51290;45.060;38.948;2023-03-24T15:53:30;12.66;64.24
64833;HTU21D;51290;45.060;38.948;2023-03-24T15:58:53;12.52;64.39
64833;HTU21D;51290;45.060;38.948;2023-03-24T16:01:27;12.44;64.48
64833;HTU21D;51290;45.060;38.948;2023-03-24T16:04:05;12.40;64.63
64833;HTU21D;51290;45.060;38.948;2023-03-24T16:06:34;12.35;64.76
64833;HTU21D;51290;45.060;38.948;2023-03-24T16:09:07;12.31;64.83
64833;HTU21D;51290;45.060;38.948;2023-03-24T16:11:35;12.28;64.90
64833;HTU21D;51290;45.060;38.948;2023-03-24T16:14:16;12.25;64.92
64833;HTU21D;51290;45.060;38.948;2023-03-24T16:16:43;12.21;64.98
64833;HTU21D;51290;45.060;38.948;2023-03-24T16:19:10;12.19;65.03
64833;HTU21D;51290;45.060;38.948;2023-03-24T16:21:36;12.17;65.08
64833;HTU21D;51290;45.060;38.948;2023-03-24T16:24:02;12.15;65.13
64833;HTU21D;51290;45.060;38.948;2023-03-24T16:26:31;12.13;65.17
64833;HTU21D;51290;45.060;38.948;2023-03-24T16:31:43;12.05;65.39
64833;HTU21D;51290;45.060;38.948;2023-03-24T16:34:09;12.00;65.46
64833;HTU21D;51290;45.060;38.948;2023-03-24T16:36:35;11.97;65.58
64833;HTU21D;51290;45.060;38.948;2023-03-24T16:39:05;11.91;65.81
64833;HTU21D;51290;45.060;38.948;2023-03-24T16:41:34;11.88;65.84
64833;HTU21D;51290;45.060;38.948;2023-03-24T16:44:00;11.84;65.87
64833;HTU21D;51290;45.060;38.948;2023-03-24T16:46:30;11.79;65.91
64833;HTU21D;51290;45.060;38.948;2023-03-24T16:48:57;11.75;65.95
64833;HTU21D;51290;45.060;38.948;2023-03-24T16:51:23;11.71;65.98
64833;HTU21D;51290;45.060;38.948;2023-03-24T16:53:49;11.64;66.01
64833;HTU21D;51290;45.060;38.948;2023-03-24T16:56:18;11.60;66.07
64833;HTU21D;51290;45.060;38.948;2023-03-24T16:58:45;11.54;66.09
64833;HTU21D;51290;45.060;38.948;2023-03-24T17:03:56;11.41;66.30
64833;HTU21D;51290;45.060;38.948;2023-03-24T17:06:23;11.36;66.31
64833;HTU21D;51290;45.060;38.948;2023-03-24T17:08:50;11.30;66.48
64833;HTU21D;51290;45.060;38.948;2023-03-24T17:11:28;11.25;66.56
64833;HTU21D;51290;45.060;38.948;2023-03-24T17:13:55;11.22;66.58
64833;HTU21D;51290;45.060;38.948;2023-03-24T17:16:30;11.15;66.66
64833;HTU21D;51290;45.060;38.948;2023-03-24T17:19:00;11.11;66.78
64833;HTU21D;51290;45.060;38.948;2023-03-24T17:21:28;11.07;67.07
64833;HTU21D;51290;45.060;38.948;2023-03-24T17:23:54;11.03;67.17
64833;HTU21D;51290;45.060;38.948;2023-03-24T17:26:22;10.99;67.16
64833;HTU21D;51290;45.060;38.948;2023-03-24T17:28:48;10.93;67.16
64833;HTU21D;51290;45.060;38.948;2023-03-24T17:31:15;10.88;67.21
64833;HTU21D;51290;45.060;38.948;2023-03-24T17:33:41;10.83;67.28
64833;HTU21D;51290;45.060;38.948;2023-03-24T17:36:15;10.80;67.33
64833;HTU21D;51290;45.060;38.948;2023-03-24T17:38:42;10.77;67.46
64833;HTU21D;51290;45.060;38.948;2023-03-24T17:41:08;10.74;67.49
64833;HTU21D;51290;45.060;38.948;2023-03-24T17:43:35;10.71;67.52
64833;HTU21D;51290;45.060;38.948;2023-03-24T17:46:01;10.68;67.58
64833;HTU21D;51290;45.060;38.948;2023-03-24T17:48:30;10.64;67.63
64833;HTU21D;51290;45.060;38.948;2023-03-24T17:50:57;10.58;67.65
64833;HTU21D;51290;45.060;38.948;2023-03-24T17:53:23;10.55;67.74
64833;HTU21D;51290;45.060;38.948;2023-03-24T17:55:57;10.54;67.77
64833;HTU21D;51290;45.060;38.948;2023-03-24T17:58:24;10.51;67.79
64833;HTU21D;51290;45.060;38.948;2023-03-24T18:00:56;10.46;67.85
64833;HTU21D;51290;45.060;38.948;2023-03-24T18:03:23;10.42;67.88
64833;HTU21D;51290;45.060;38.948;2023-03-24T18:05:50;10.40;67.89
64833;HTU21D;51290;45.060;38.948;2023-03-24T18:08:16;10.36;67.94
64833;HTU21D;51290;45.060;38.948;2023-03-24T18:10:42;10.34;67.99
64833;HTU21D;51290;45.060;38.948;2023-03-24T18:13:09;10.31;68.04
64833;HTU21D;51290;45.060;38.948;2023-03-24T18:15:40;10.28;68.09
64833;HTU21D;51290;45.060;38.948;2023-03-24T18:18:06;10.26;68.14
64833;HTU21D;51290;45.060;38.948;2023-03-24T18:20:32;10.24;68.23